KLOM

Wings Field Airport

Philadelphia, Pennsylvania, USA
METAR KLOM 170235Z AUTO 00000KT 10SM CLR 06/06 A3010 RMK AO1
Observed Flight Rules
Oct-17 @ 02:35 UTC (33 minutes ago) Visual Flight Rules
Visibility Clouds
10 miles
  • Clear skies
Temperatures Readings
Current 6°C / 43°F
Dewpoint 6°C / 43°F
Humidity 100%
Altimeter 30.1" Hg
Pressure 1019 hPa
Elevation 92
METAR KLOM 170235Z AUTO 00000KT 10SM CLR 06/06 A3010 RMK AO1
Observed Flight Rules
Oct-17 @ 02:35 UTC
(33 minutes ago)
VFR
Clouds
  • Clear skies
Temperature Dewpoint
6°C / 43°F 6°C / 43°F
Humidity Altimeter Pressure
100% 30.1" Hg 1019 hPa